Time;durP1;ratioP1;P1;durP2;ratioP2;P2;SDS_P1;SDS_P2;PMS_P1;PMS_P2;Temp;Humidity;BMP_temperature;BMP_pressure;BME280_temperature;BME280_humidity;BME280_pressure;Samples;Min_cycle;Max_cycle;Signal;HPM_P1;HPM_P2
2021/09/17 06:55:53;;;;;;;50.63;39.00;;;14.80;99.90;;;;;;5061543;27;20399;-74
2021/09/17 06:58:18;;;;;;;49.73;40.40;;;14.70;99.10;;;;;;5066477;28;20528;-71
2021/09/17 07:00:44;;;;;;;54.63;40.47;;;14.80;99.60;;;;;;5066581;28;20123;-75
2021/09/17 07:03:10;;;;;;;46.77;38.97;;;14.90;99.90;;;;;;5063868;28;20048;-74
2021/09/17 07:05:35;;;;;;;48.23;38.97;;;14.90;99.90;;;;;;5066283;28;20048;-75
2021/09/17 07:08:04;;;;;;;46.50;38.20;;;15.00;99.90;;;;;;5047819;28;20516;-77
2021/09/17 07:10:30;;;;;;;39.60;33.07;;;15.10;99.90;;;;;;5064456;28;20067;-74
2021/09/17 07:12:56;;;;;;;41.70;35.40;;;15.20;99.90;;;;;;5064315;28;20037;-76
2021/09/17 07:15:21;;;;;;;38.00;33.87;;;15.30;99.90;;;;;;5065481;28;20083;-79
2021/09/17 07:17:47;;;;;;;37.10;32.97;;;15.40;99.90;;;;;;5065133;28;20107;-79
2021/09/17 07:20:13;;;;;;;39.27;34.50;;;15.50;99.90;;;;;;5066043;28;20045;-74
2021/09/17 07:22:39;;;;;;;38.23;33.87;;;15.50;99.90;;;;;;5065678;28;20729;-74
2021/09/17 07:25:05;;;;;;;37.13;32.47;;;15.60;99.90;;;;;;5065885;28;20674;-76
2021/09/17 07:27:31;;;;;;;35.53;31.73;;;15.70;99.90;;;;;;5063991;28;20041;-70
2021/09/17 07:29:57;;;;;;;35.47;31.70;;;15.80;99.90;;;;;;5079742;28;20085;-71
2021/09/17 07:32:22;;;;;;;34.00;30.33;;;15.90;99.90;;;;;;5085131;28;20141;-71
2021/09/17 07:34:48;;;;;;;34.87;31.10;;;15.90;99.90;;;;;;5077024;28;20044;-71
2021/09/17 07:37:14;;;;;;;33.87;30.23;;;15.90;99.90;;;;;;5064086;28;20408;-70
2021/09/17 07:39:40;;;;;;;33.30;29.77;;;16.00;99.90;;;;;;5064732;28;20049;-72
2021/09/17 07:42:08;;;;;;;33.80;30.17;;;16.10;99.90;;;;;;5065541;28;20041;-71
2021/09/17 07:44:36;;;;;;;34.73;31.03;;;16.10;99.90;;;;;;5065021;28;20540;-71
2021/09/17 07:47:03;;;;;;;34.63;31.03;;;16.10;99.90;;;;;;5065160;28;20570;-72
2021/09/17 07:49:29;;;;;;;36.33;32.53;;;16.20;99.90;;;;;;5064521;28;20413;-71
2021/09/17 07:51:54;;;;;;;35.43;31.63;;;16.30;99.90;;;;;;5060679;28;20056;-70
2021/09/17 07:54:20;;;;;;;34.53;30.80;;;16.30;99.90;;;;;;5064864;28;20053;-73
2021/09/17 07:56:46;;;;;;;34.97;31.03;;;16.30;99.90;;;;;;5065104;28;20560;-74
2021/09/17 07:59:12;;;;;;;35.07;30.90;;;16.40;99.90;;;;;;5064382;28;20057;-74
2021/09/17 08:01:37;;;;;;;34.33;30.73;;;16.40;99.90;;;;;;5065259;28;20357;-76
2021/09/17 08:04:03;;;;;;;32.20;29.03;;;16.40;99.90;;;;;;5064730;28;20505;-76
2021/09/17 08:06:29;;;;;;;34.90;31.17;;;16.50;99.90;;;;;;5055187;28;20103;-74
2021/09/17 08:08:54;;;;;;;34.13;30.50;;;16.50;99.90;;;;;;5051683;28;20505;-76
2021/09/17 08:11:20;;;;;;;34.43;30.80;;;16.60;99.90;;;;;;5051933;28;20516;-75
2021/09/17 08:13:45;;;;;;;31.63;28.43;;;16.60;99.90;;;;;;5049456;28;20037;-75
2021/09/17 08:16:11;;;;;;;30.43;27.33;;;16.70;99.90;;;;;;5050120;28;20059;-77
2021/09/17 08:18:37;;;;;;;32.63;29.57;;;16.70;99.90;;;;;;5050395;28;20057;-74
2021/09/17 08:21:02;;;;;;;33.37;29.87;;;16.70;99.90;;;;;;5049124;28;20048;-71
2021/09/17 08:23:28;;;;;;;34.03;30.47;;;16.80;99.90;;;;;;5051454;28;20068;-74
2021/09/17 08:25:55;;;;;;;31.47;28.17;;;16.80;99.90;;;;;;5050869;28;20036;-65
2021/09/17 08:28:24;;;;;;;29.50;26.63;;;16.90;99.90;;;;;;5050636;28;20072;-65
2021/09/17 08:30:51;;;;;;;26.87;24.07;;;16.90;99.90;;;;;;5051143;28;20120;-65
2021/09/17 08:33:17;;;;;;;24.93;22.53;;;17.00;99.90;;;;;;5051318;28;20056;-65
2021/09/17 08:35:42;;;;;;;26.33;23.70;;;17.00;99.60;;;;;;5050253;28;20162;-66
2021/09/17 08:38:11;;;;;;;24.93;22.33;;;17.10;99.30;;;;;;5051259;28;20040;-66
2021/09/17 08:40:36;;;;;;;28.70;25.40;;;17.20;99.20;;;;;;5051254;28;20378;-66
2021/09/17 08:43:02;;;;;;;24.00;21.70;;;17.20;99.20;;;;;;5050175;28;20102;-66
2021/09/17 08:45:30;;;;;;;24.90;22.40;;;17.30;99.10;;;;;;5051331;28;20060;-66
2021/09/17 08:47:58;;;;;;;19.60;17.80;;;17.40;98.90;;;;;;5049776;28;20040;-66
2021/09/17 08:50:24;;;;;;;19.23;16.30;;;17.40;98.50;;;;;;5051028;28;20048;-66
2021/09/17 11:15:21;;;;;;;5.27;2.80;;;18.20;93.30;;;;;;5082269;27;20397;-70
2021/09/17 11:17:48;;;;;;;6.13;2.50;;;18.20;94.60;;;;;;5083982;28;20055;-70
2021/09/17 11:20:28;;;;;;;4.47;3.10;;;18.20;94.10;;;;;;5084882;28;20108;-68
2021/09/17 11:23:05;;;;;;;6.13;2.43;;;18.20;93.70;;;;;;5083829;28;20055;-69
2021/09/17 11:25:45;;;;;;;3.93;2.60;;;18.20;92.90;;;;;;5086522;28;20451;-70
2021/09/17 11:28:19;;;;;;;2.87;2.33;;;18.30;93.10;;;;;;5086106;28;20055;-69
2021/09/17 11:30:44;;;;;;;2.87;2.10;;;18.30;92.90;;;;;;5083981;28;20040;-72
2021/09/17 11:33:18;;;;;;;3.10;1.90;;;18.30;92.90;;;;;;5085654;28;20063;-75
2021/09/17 11:35:44;;;;;;;2.67;1.77;;;18.40;92.00;;;;;;5085319;28;20059;-73
2021/09/17 11:38:09;;;;;;;8.50;2.93;;;18.50;91.40;;;;;;5083859;28;20040;-75
2021/09/17 11:40:35;;;;;;;5.27;2.33;;;18.60;91.30;;;;;;5085905;28;20040;-75
2021/09/17 11:43:14;;;;;;;2.80;1.50;;;18.70;90.90;;;;;;5084325;28;20089;-73
2021/09/17 11:45:45;;;;;;;3.80;2.40;;;18.80;90.30;;;;;;5084604;28;20072;-76
2021/09/17 11:48:19;;;;;;;4.20;2.03;;;18.90;90.30;;;;;;5083987;28;20828;-75
2021/09/17 11:50:44;;;;;;;5.50;2.43;;;18.90;90.60;;;;;;5084256;28;20496;-81
2021/09/17 11:53:10;;;;;;;4.40;2.10;;;19.00;90.10;;;;;;5085584;28;20064;-81
2021/09/17 11:55:36;;;;;;;5.77;2.83;;;19.10;90.00;;;;;;5083620;28;20657;-79
2021/09/17 11:58:01;;;;;;;2.47;2.10;;;19.00;89.80;;;;;;5083475;28;20082;-78
2021/09/17 12:00:29;;;;;;;2.67;1.70;;;18.90;89.80;;;;;;5084023;28;20116;-79
2021/09/17 13:38:21;;;;;;;5.93;2.60;;;18.80;91.30;;;;;;5119582;27;20525;-77
2021/09/17 13:40:47;;;;;;;3.40;2.30;;;18.90;91.80;;;;;;5112008;28;20084;-79
2021/09/17 13:43:13;;;;;;;6.20;2.70;;;19.00;91.70;;;;;;5110020;28;20079;-81
2021/09/17 13:45:39;;;;;;;4.63;3.13;;;19.00;91.60;;;;;;5104708;28;20055;-81
2021/09/17 13:48:05;;;;;;;5.63;3.10;;;19.00;91.30;;;;;;5106425;28;20485;-82
2021/09/17 13:50:30;;;;;;;4.67;2.87;;;19.00;91.10;;;;;;5105656;28;20050;-81
2021/09/17 13:52:58;;;;;;;5.13;2.73;;;19.00;90.90;;;;;;5104220;28;20077;-81
2021/09/17 13:55:31;;;;;;;3.97;2.60;;;18.90;90.90;;;;;;5106111;28;20044;-80
2021/09/17 13:57:58;;;;;;;5.03;3.03;;;18.90;90.90;;;;;;5105078;28;20131;-75
2021/09/17 14:00:27;;;;;;;5.97;2.93;;;19.10;90.60;;;;;;5105957;28;20044;-76
2021/09/17 14:02:53;;;;;;;6.03;3.30;;;19.10;90.10;;;;;;5104405;28;20150;-75
2021/09/17 14:05:20;;;;;;;5.60;2.20;;;19.20;87.60;;;;;;5103300;28;20047;-74
2021/09/17 14:07:45;;;;;;;4.87;2.20;;;19.30;87.60;;;;;;5106935;28;20491;-73
2021/09/17 14:10:11;;;;;;;4.73;2.43;;;19.30;86.80;;;;;;5111169;28;20040;-73
2021/09/17 14:12:37;;;;;;;3.13;2.20;;;19.30;86.90;;;;;;5104847;28;20044;-73
2021/09/17 14:15:04;;;;;;;4.63;2.10;;;19.40;87.20;;;;;;5105464;28;20500;-73
2021/09/17 14:17:29;;;;;;;5.97;2.40;;;19.40;86.70;;;;;;5105251;28;20078;-73
2021/09/17 14:19:55;;;;;;;3.70;2.20;;;19.40;86.60;;;;;;5102962;28;20464;-73
2021/09/17 14:22:20;;;;;;;4.90;2.17;;;19.30;86.10;;;;;;5105363;28;20452;-73
2021/09/17 14:24:46;;;;;;;4.63;3.50;;;19.40;86.10;;;;;;5103882;28;20495;-73
2021/09/17 14:27:12;;;;;;;3.97;2.53;;;19.40;85.20;;;;;;5102990;28;20440;-72
2021/09/17 14:29:38;;;;;;;4.60;2.50;;;19.30;85.00;;;;;;5105341;28;20134;-73
2021/09/17 14:32:04;;;;;;;6.07;3.23;;;19.40;85.40;;;;;;5104796;28;20047;-72
2021/09/17 14:57:03;;;;;;;5.97;2.07;;;19.50;84.00;;;;;;5141359;27;20397;-72
2021/09/17 18:05:12;;;;;;;4.60;1.47;;;16.40;92.00;;;;;;5018338;28;20500;-72
2021/09/17 18:07:38;;;;;;;3.90;1.10;;;16.30;91.60;;;;;;5024655;28;20558;-73
2021/09/17 18:10:04;;;;;;;5.63;1.30;;;16.30;92.30;;;;;;5024890;28;20048;-75
2021/09/17 18:12:30;;;;;;;3.93;1.43;;;16.20;92.70;;;;;;5025115;28;20042;-69
2021/09/17 18:14:55;;;;;;;5.63;1.23;;;16.20;93.00;;;;;;5025996;28;20508;-72
2021/09/17 18:17:21;;;;;;;5.20;1.30;;;16.20;93.30;;;;;;5026131;28;20116;-70
2021/09/17 18:19:46;;;;;;;4.23;1.37;;;16.20;93.40;;;;;;5025226;28;20046;-70
2021/09/17 18:22:13;;;;;;;6.13;1.47;;;16.10;93.50;;;;;;5025965;28;20451;-72
2021/09/17 18:24:39;;;;;;;5.93;1.20;;;16.10;93.60;;;;;;5023656;28;20087;-74
2021/09/17 18:27:05;;;;;;;5.60;1.00;;;16.10;93.60;;;;;;5026026;28;20073;-76
2021/09/17 18:29:30;;;;;;;4.57;1.03;;;16.10;93.60;;;;;;5024591;28;20076;-75
2021/09/17 18:31:56;;;;;;;3.73;0.90;;;16.10;93.60;;;;;;5023557;28;20049;-72
2021/09/17 18:34:21;;;;;;;2.83;0.90;;;16.10;93.50;;;;;;5025556;28;20045;-79
2021/09/17 18:36:47;;;;;;;3.23;0.73;;;16.10;93.50;;;;;;5024243;28;20041;-77
2021/09/17 18:39:13;;;;;;;3.67;0.70;;;16.10;93.50;;;;;;5023870;28;20445;-75
2021/09/17 18:41:38;;;;;;;2.30;0.87;;;16.10;93.50;;;;;;5025506;28;20061;-71
2021/09/17 18:44:04;;;;;;;1.83;0.60;;;16.10;93.50;;;;;;5025369;28;20045;-70
2021/09/17 18:46:30;;;;;;;3.70;0.97;;;16.10;93.50;;;;;;5024529;28;20076;-71
2021/09/17 18:48:55;;;;;;;4.80;0.93;;;16.10;93.50;;;;;;5024054;28;20049;-70
2021/09/17 18:51:21;;;;;;;2.70;0.80;;;16.10;93.50;;;;;;5024397;28;20058;-73
2021/09/17 18:53:47;;;;;;;4.10;0.90;;;16.10;93.50;;;;;;5023551;28;20042;-76
2021/09/17 18:56:12;;;;;;;2.83;0.80;;;16.10;93.40;;;;;;5024387;28;20494;-70
2021/09/17 18:58:38;;;;;;;3.13;0.63;;;16.00;93.40;;;;;;5024314;28;20045;-73
2021/09/17 19:01:03;;;;;;;2.33;0.90;;;15.90;93.50;;;;;;5023402;28;20041;-75
